Time,TemperatureF,DewpointF,PressureIn,WindDirection,WindDirectionDegrees,WindSpeedMPH,WindSpeedGustMPH,Humidity,HourlyPrecipIn,Conditions,Clouds,dailyrainin,SoftwareType,DateUTC
2013-05-10 00:03:00,59.7,38.9,30.11,SSE,161,3.5,3.6,46,0.00,CLR,SCT,0.00,WeatherDisplay:10.37,2013-05-10 07:03:00,
2013-05-10 00:09:00,59.4,38.6,30.11,SSE,161,2.3,0.0,46,0.00,CLR,SCT,0.00,WeatherDisplay:10.37,2013-05-10 07:09:00,
2013-05-10 00:14:00,59.2,38.4,30.11,SSE,161,2.3,0.0,46,0.00,CLR,SCT,0.00,WeatherDisplay:10.37,2013-05-10 07:14:00,
2013-05-10 00:19:00,59.0,38.2,30.11,SSE,161,2.3,2.3,46,0.00,CLR,SCT,0.00,WeatherDisplay:10.37,2013-05-10 07:19:00,
2013-05-10 00:24:00,58.8,38.6,30.11,SSE,161,0.0,0.0,47,0.00,CLR,SCT,0.00,WeatherDisplay:10.37,2013-05-10 07:24:00,
2013-05-10 00:29:00,58.5,38.8,30.11,SSE,161,0.0,0.0,48,0.00,CLR,SCT,0.00,WeatherDisplay:10.37,2013-05-10 07:29:00,
2013-05-10 00:34:00,58.1,38.5,30.11,SSE,161,0.0,0.0,48,0.00,CLR,SCT,0.00,WeatherDisplay:10.37,2013-05-10 07:34:00,
2013-05-10 00:40:00,58.1,38.5,30.11,SSE,161,0.0,0.0,48,0.00,CLR,SCT,0.00,WeatherDisplay:10.37,2013-05-10 07:40:00,
2013-05-10 00:45:00,57.9,37.8,30.11,SSE,161,0.0,0.0,47,0.00,CLR,SCT,0.00,WeatherDisplay:10.37,2013-05-10 07:45:00,
2013-05-10 00:50:00,57.9,37.8,30.11,SSE,161,0.0,0.0,47,0.00,CLR,SCT,0.00,WeatherDisplay:10.37,2013-05-10 07:50:00,
2013-05-10 00:55:00,57.6,37.5,30.11,SSE,161,0.0,0.0,47,0.00,CLR,SCT,0.00,WeatherDisplay:10.37,2013-05-10 07:55:00,
2013-05-10 01:00:00,57.4,37.8,30.11,SSE,161,0.0,0.0,48,0.00,CLR,SCT,0.00,WeatherDisplay:10.37,2013-05-10 08:00:00,
2013-05-10 01:05:00,57.2,37.7,30.11,SSE,161,0.0,0.0,48,0.00,CLR,SCT,0.00,WeatherDisplay:10.37,2013-05-10 08:05:00,
2013-05-10 01:10:00,56.8,37.9,30.14,SSE,159,0.0,0.0,49,0.00,CLR,SCT,0.00,WeatherDisplay:10.37,2013-05-10 08:10:00,
2013-05-10 01:16:00,56.7,37.7,30.14,SSE,156,0.0,0.0,49,0.00,CLR,SCT,0.00,WeatherDisplay:10.37,2013-05-10 08:16:00,
2013-05-10 01:21:00,56.3,37.9,30.14,ENE,73,3.5,3.6,50,0.00,CLR,SCT,0.00,WeatherDisplay:10.37,2013-05-10 08:21:00,
2013-05-10 01:26:00,56.1,37.7,30.14,ENE,74,3.5,3.5,50,0.00,CLR,SCT,0.00,WeatherDisplay:10.37,2013-05-10 08:26:00,
2013-05-10 01:31:00,55.9,37.6,30.14,East,100,3.5,3.5,50,0.00,CLR,SCT,0.00,WeatherDisplay:10.37,2013-05-10 08:31:00,
2013-05-10 01:37:00,55.8,37.4,30.14,ESE,122,3.5,3.5,50,0.00,CLR,SCT,0.00,WeatherDisplay:10.37,2013-05-10 08:37:00,
2013-05-10 01:42:00,55.6,37.2,30.14,ESE,115,4.6,4.6,50,0.00,CLR,SCT,0.00,WeatherDisplay:10.37,2013-05-10 08:42:00,
2013-05-10 01:47:00,55.6,37.2,30.14,ESE,115,0.0,0.0,50,0.00,CLR,SCT,0.00,WeatherDisplay:10.37,2013-05-10 08:47:00,
2013-05-10 01:52:00,55.4,37.1,30.14,ESE,115,0.0,0.0,50,0.00,CLR,SCT,0.00,WeatherDisplay:10.37,2013-05-10 08:52:00,
2013-05-10 01:57:00,55.4,37.1,30.14,ESE,114,2.3,2.3,50,0.00,CLR,SCT,0.00,WeatherDisplay:10.37,2013-05-10 08:57:00,
2013-05-10 02:03:00,55.2,37.4,30.14,ESE,114,0.0,0.0,51,0.00,CLR,SCT,0.00,WeatherDisplay:10.37,2013-05-10 09:03:00,
2013-05-10 02:08:00,54.9,37.1,30.14,ESE,117,0.0,0.0,51,0.00,CLR,SCT,0.00,WeatherDisplay:10.37,2013-05-10 09:08:00,
2013-05-10 02:13:00,54.9,37.1,30.14,ESE,117,0.0,0.0,51,0.00,CLR,SCT,0.00,WeatherDisplay:10.37,2013-05-10 09:13:00,
2013-05-10 02:18:00,54.7,37.4,30.14,ESE,117,2.3,0.0,52,0.00,CLR,SCT,0.00,WeatherDisplay:10.37,2013-05-10 09:18:00,
2013-05-10 02:23:00,54.5,37.2,30.14,ESE,118,3.5,3.5,52,0.00,CLR,SCT,0.00,WeatherDisplay:10.37,2013-05-10 09:23:00,
2013-05-10 02:29:00,54.3,37.1,30.14,ESE,118,2.3,0.0,52,0.00,CLR,SCT,0.00,WeatherDisplay:10.37,2013-05-10 09:29:00,
2013-05-10 02:34:00,54.0,37.2,30.14,ESE,118,0.0,0.0,53,0.00,CLR,SCT,0.00,WeatherDisplay:10.37,2013-05-10 09:34:00,
2013-05-10 02:39:00,53.6,37.3,30.14,ESE,119,0.0,0.0,54,0.00,CLR,SCT,0.00,WeatherDisplay:10.37,2013-05-10 09:39:00,
2013-05-10 02:44:00,53.2,37.5,30.14,ESE,119,0.0,0.0,55,0.00,CLR,SCT,0.00,WeatherDisplay:10.37,2013-05-10 09:44:00,
2013-05-10 02:49:00,53.1,37.3,30.14,ESE,119,0.0,0.0,55,0.00,CLR,SCT,0.00,WeatherDisplay:10.37,2013-05-10 09:49:00,
2013-05-10 02:54:00,52.7,37.9,30.14,ESE,119,0.0,0.0,57,0.00,CLR,SCT,0.00,WeatherDisplay:10.37,2013-05-10 09:54:00,
2013-05-10 02:59:00,52.3,37.5,30.14,SE,144,0.0,4.0,57,0.00,CLR,SCT,0.00,WeatherDisplay:10.37,2013-05-10 09:59:00,
2013-05-10 03:05:00,52.0,37.7,30.14,SW,219,3.5,3.5,58,0.00,CLR,SCT,0.00,WeatherDisplay:10.37,2013-05-10 10:05:00,
2013-05-10 03:10:00,52.0,37.7,30.14,SW,218,0.0,0.0,58,0.00,CLR,SCT,0.00,WeatherDisplay:10.37,2013-05-10 10:10:00,
2013-05-10 03:15:00,52.0,37.7,30.14,SW,232,3.5,3.5,58,0.00,CLR,SCT,0.00,WeatherDisplay:10.37,2013-05-10 10:15:00,
2013-05-10 03:20:00,52.0,37.7,30.14,SW,232,0.0,0.0,58,0.00,CLR,SCT,0.00,WeatherDisplay:10.37,2013-05-10 10:20:00,
2013-05-10 03:25:00,51.4,37.1,30.14,SW,232,2.3,0.0,58,0.00,CLR,SCT,0.00,WeatherDisplay:10.37,2013-05-10 10:25:00,
2013-05-10 03:31:00,50.7,36.0,30.14,SW,232,0.0,0.0,57,0.00,CLR,SCT,0.00,WeatherDisplay:10.37,2013-05-10 10:31:00,
2013-05-10 03:36:00,50.2,36.0,30.14,SW,232,0.0,0.0,58,0.00,CLR,SCT,0.00,WeatherDisplay:10.37,2013-05-10 10:36:00,
2013-05-10 03:41:00,50.0,36.2,30.14,SW,232,26.5,0.0,59,0.00,CLR,SCT,0.00,WeatherDisplay:10.37,2013-05-10 10:41:00,
2013-05-10 03:46:00,49.6,35.9,30.14,SW,231,0.0,0.0,59,0.00,CLR,SCT,0.00,WeatherDisplay:10.37,2013-05-10 10:46:00,
2013-05-10 03:51:00,49.1,36.6,30.14,SW,230,0.0,0.0,62,0.00,CLR,SCT,0.00,WeatherDisplay:10.37,2013-05-10 10:51:00,
2013-05-10 03:56:00,48.7,37.5,30.14,SW,229,0.0,0.0,65,0.00,CLR,SCT,0.00,WeatherDisplay:10.37,2013-05-10 10:56:00,
2013-05-10 04:01:00,48.7,37.5,30.14,SW,229,0.0,0.0,65,0.00,CLR,SCT,0.00,WeatherDisplay:10.37,2013-05-10 11:01:00,
2013-05-10 04:06:00,48.6,37.7,30.14,SW,229,0.0,0.0,66,0.00,CLR,SCT,0.00,WeatherDisplay:10.37,2013-05-10 11:06:00,
2013-05-10 04:12:00,48.4,37.5,30.14,SW,229,0.0,0.0,66,0.00,CLR,SCT,0.00,WeatherDisplay:10.37,2013-05-10 11:12:00,
2013-05-10 04:17:00,48.4,37.5,30.14,SW,229,0.0,0.0,66,0.00,CLR,SCT,0.00,WeatherDisplay:10.37,2013-05-10 11:17:00,
2013-05-10 04:22:00,48.2,37.4,30.14,SW,229,0.0,0.0,66,0.00,CLR,SCT,0.00,WeatherDisplay:10.37,2013-05-10 11:22:00,
2013-05-10 04:27:00,48.2,37.0,30.14,SW,229,0.0,0.0,65,0.00,CLR,SCT,0.00,WeatherDisplay:10.37,2013-05-10 11:27:00,
2013-05-10 04:32:00,47.8,37.0,30.14,SW,229,0.0,0.0,66,0.00,CLR,SCT,0.00,WeatherDisplay:10.37,2013-05-10 11:32:00,
2013-05-10 04:38:00,47.3,36.9,30.14,SW,229,0.0,0.0,67,0.00,CLR,SCT,0.00,WeatherDisplay:10.37,2013-05-10 11:38:00,
2013-05-10 04:43:00,47.5,37.8,30.17,SW,229,0.0,0.0,69,0.00,CLR,SCT,0.00,WeatherDisplay:10.37,2013-05-10 11:43:00,
2013-05-10 04:48:00,47.5,37.4,30.17,SW,229,0.0,0.0,68,0.00,CLR,SCT,0.00,WeatherDisplay:10.37,2013-05-10 11:48:00,
2013-05-10 04:53:00,47.1,37.5,30.17,SW,229,0.0,0.0,69,0.00,CLR,SCT,0.00,WeatherDisplay:10.37,2013-05-10 11:53:00,
2013-05-10 04:58:00,46.9,37.7,30.17,SW,229,0.0,0.0,70,0.00,CLR,SCT,0.00,WeatherDisplay:10.37,2013-05-10 11:58:00,
2013-05-10 05:03:00,46.6,37.0,30.17,SW,229,0.0,0.0,69,0.00,CLR,SCT,0.00,WeatherDisplay:10.37,2013-05-10 12:03:00,
2013-05-10 05:09:00,46.4,37.5,30.17,SW,229,0.0,0.0,71,0.00,CLR,SCT,0.00,WeatherDisplay:10.37,2013-05-10 12:09:00,
2013-05-10 05:14:00,46.4,37.5,30.17,SW,229,0.0,0.0,71,0.00,CLR,SCT,0.00,WeatherDisplay:10.37,2013-05-10 12:14:00,
2013-05-10 05:19:00,46.4,38.2,30.17,SW,229,0.0,0.0,73,0.00,CLR,SCT,0.00,WeatherDisplay:10.37,2013-05-10 12:19:00,
2013-05-10 05:24:00,46.2,37.7,30.17,SW,227,3.5,0.0,72,0.00,CLR,SCT,0.00,WeatherDisplay:10.37,2013-05-10 12:24:00,
2013-05-10 05:29:00,46.2,39.1,30.17,SW,220,4.6,4.6,76,0.00,CLR,SCT,0.00,WeatherDisplay:10.37,2013-05-10 12:29:00,
2013-05-10 05:35:00,46.2,38.7,30.17,SSW,209,3.5,3.5,75,0.00,CLR,SCT,0.00,WeatherDisplay:10.37,2013-05-10 12:35:00,
2013-05-10 05:40:00,46.2,38.0,30.17,SSW,209,3.5,3.5,73,0.00,CLR,SCT,0.00,WeatherDisplay:10.37,2013-05-10 12:40:00,
2013-05-10 05:45:00,46.0,37.5,30.17,SSW,209,3.5,3.5,72,0.00,CLR,SCT,0.00,WeatherDisplay:10.37,2013-05-10 12:45:00,
2013-05-10 05:50:00,45.9,37.7,30.17,SSW,209,3.6,3.6,73,0.00,CLR,SCT,0.00,WeatherDisplay:10.37,2013-05-10 12:50:00,
2013-05-10 05:55:00,45.7,37.5,30.17,SSW,209,3.5,3.5,73,0.00,CLR,SCT,0.00,WeatherDisplay:10.37,2013-05-10 12:55:00,
2013-05-10 06:00:00,45.5,37.3,30.17,SSW,209,3.5,3.5,73,0.00,CLR,SCT,0.00,WeatherDisplay:10.37,2013-05-10 13:00:00,
2013-05-10 06:05:00,45.7,38.2,30.17,SSW,209,3.5,3.5,75,0.00,CLR,SCT,0.00,WeatherDisplay:10.37,2013-05-10 13:05:00,
2013-05-10 06:11:00,45.9,38.4,30.14,SSW,211,3.5,3.5,75,0.00,CLR,SCT,0.00,WeatherDisplay:10.37,2013-05-10 13:11:00,
2013-05-10 06:16:00,46.0,38.6,30.14,SSW,210,3.5,3.5,75,0.00,CLR,SCT,0.00,WeatherDisplay:10.37,2013-05-10 13:16:00,
2013-05-10 06:21:00,46.6,38.7,30.14,SSW,210,3.5,3.5,74,0.00,CLR,SCT,0.00,WeatherDisplay:10.37,2013-05-10 13:21:00,
2013-05-10 06:26:00,46.8,38.6,30.14,SSW,210,3.5,3.5,73,0.00,CLR,SCT,0.00,WeatherDisplay:10.37,2013-05-10 13:26:00,
2013-05-10 06:31:00,46.9,38.4,30.14,SSW,210,2.3,0.0,72,0.00,CLR,SCT,0.00,WeatherDisplay:10.37,2013-05-10 13:31:00,
2013-05-10 06:37:00,46.9,37.7,30.14,SSW,210,2.3,2.3,70,0.00,CLR,SCT,0.00,WeatherDisplay:10.37,2013-05-10 13:37:00,
2013-05-10 06:42:00,46.8,37.5,30.14,SSW,210,2.3,0.0,70,0.00,CLR,SCT,0.00,WeatherDisplay:10.37,2013-05-10 13:42:00,
2013-05-10 06:47:00,46.9,37.7,30.14,SSW,210,2.3,2.3,70,0.00,CLR,SCT,0.00,WeatherDisplay:10.37,2013-05-10 13:47:00,
2013-05-10 06:52:00,47.1,37.8,30.14,SSW,210,2.3,2.7,70,0.00,CLR,SCT,0.00,WeatherDisplay:10.37,2013-05-10 13:52:00,
2013-05-10 06:58:00,47.3,38.0,30.14,SSW,213,3.5,3.5,70,0.00,CLR,SCT,0.00,WeatherDisplay:10.37,2013-05-10 13:58:00,
2013-05-10 07:03:00,47.8,38.2,30.14,SW,215,3.5,3.5,69,0.00,CLR,SCT,0.00,WeatherDisplay:10.37,2013-05-10 14:03:00,
2013-05-10 07:08:00,48.2,38.1,30.14,SW,219,3.5,3.5,68,0.00,CLR,SCT,0.00,WeatherDisplay:10.37,2013-05-10 14:08:00,
2013-05-10 07:13:00,48.6,38.1,30.17,SW,218,0.0,0.0,67,0.00,CLR,SCT,0.00,WeatherDisplay:10.37,2013-05-10 14:13:00,
2013-05-10 07:18:00,48.9,38.1,30.17,SW,215,3.5,3.5,66,0.00,CLR,SCT,0.00,WeatherDisplay:10.37,2013-05-10 14:18:00,
2013-05-10 07:23:00,49.5,38.2,30.17,SSE,162,4.9,4.9,65,0.00,CLR,SCT,0.00,WeatherDisplay:10.37,2013-05-10 14:23:00,
2013-05-10 07:28:00,50.0,38.3,30.17,SSE,160,3.5,3.6,64,0.00,CLR,SCT,0.00,WeatherDisplay:10.37,2013-05-10 14:28:00,
2013-05-10 07:33:00,50.5,38.4,30.17,SSE,160,3.6,3.6,63,0.00,CLR,SCT,0.00,WeatherDisplay:10.37,2013-05-10 14:33:00,
2013-05-10 07:38:00,51.1,38.5,30.17,SSE,160,0.0,0.0,62,0.00,CLR,SCT,0.00,WeatherDisplay:10.37,2013-05-10 14:38:00,
2013-05-10 07:44:00,51.4,38.4,30.17,SSE,160,0.0,0.0,61,0.00,CLR,SCT,0.00,WeatherDisplay:10.37,2013-05-10 14:44:00,
2013-05-10 07:49:00,52.5,37.7,30.17,SE,138,3.5,3.5,57,0.00,CLR,SCT,0.00,WeatherDisplay:10.37,2013-05-10 14:49:00,
2013-05-10 07:54:00,53.8,38.0,30.17,SE,127,4.0,4.0,55,0.00,CLR,SCT,0.00,WeatherDisplay:10.37,2013-05-10 14:54:00,
2013-05-10 07:59:00,55.0,38.2,30.17,ESE,120,5.8,5.8,53,0.00,CLR,SCT,0.00,WeatherDisplay:10.37,2013-05-10 14:59:00,
2013-05-10 08:04:00,56.1,38.2,30.17,SE,135,3.5,3.5,51,0.00,CLR,SCT,0.00,WeatherDisplay:10.37,2013-05-10 15:04:00,
2013-05-10 08:09:00,56.8,36.8,30.17,ESE,105,5.8,5.8,47,0.00,CLR,SCT,0.00,WeatherDisplay:10.37,2013-05-10 15:09:00,
2013-05-10 08:14:00,57.5,36.9,30.17,ESE,119,2.0,6.0,46,0.00,CLR,SCT,0.00,WeatherDisplay:10.37,2013-05-10 15:14:00,
2013-05-10 08:19:00,58.3,37.6,30.17,ESE,106,3.5,3.5,46,0.00,CLR,SCT,0.00,WeatherDisplay:10.37,2013-05-10 15:19:00,
2013-05-10 08:25:00,58.8,37.5,30.17,ESE,113,3.5,3.5,45,0.00,CLR,SCT,0.00,WeatherDisplay:10.37,2013-05-10 15:25:00,
2013-05-10 08:30:00,59.5,37.6,30.17,South,174,3.5,3.5,44,0.00,CLR,SCT,0.00,WeatherDisplay:10.37,2013-05-10 15:30:00,
2013-05-10 08:35:00,60.3,38.2,30.17,SSE,147,2.3,0.0,44,0.00,CLR,SCT,0.00,WeatherDisplay:10.37,2013-05-10 15:35:00,
2013-05-10 08:40:00,61.0,37.7,30.17,South,179,3.5,3.5,42,0.00,CLR,SCT,0.00,WeatherDisplay:10.37,2013-05-10 15:40:00,
2013-05-10 08:45:00,61.7,37.7,30.17,SSE,153,4.0,4.0,41,0.00,CLR,SCT,0.00,WeatherDisplay:10.37,2013-05-10 15:45:00,
2013-05-10 08:50:00,62.4,38.4,30.17,SE,130,5.8,0.0,41,0.00,CLR,SCT,0.00,WeatherDisplay:10.37,2013-05-10 15:50:00,
2013-05-10 08:55:00,63.3,37.9,30.17,East,89,3.5,3.5,39,0.00,CLR,SCT,0.00,WeatherDisplay:10.37,2013-05-10 15:55:00,
2013-05-10 09:00:00,64.4,38.2,30.17,ESE,111,5.8,5.8,38,0.00,CLR,SCT,0.00,WeatherDisplay:10.37,2013-05-10 16:00:00,
2013-05-10 09:06:00,65.1,38.2,30.17,SSE,164,5.8,5.8,37,0.00,CLR,SCT,0.00,WeatherDisplay:10.37,2013-05-10 16:06:00,
2013-05-10 09:11:00,66.0,39.0,30.17,ESE,106,5.8,5.8,37,0.00,CLR,SCT,0.00,WeatherDisplay:10.37,2013-05-10 16:11:00,
2013-05-10 09:16:00,66.9,39.1,30.17,ENE,69,3.5,4.0,36,0.00,CLR,SCT,0.00,WeatherDisplay:10.37,2013-05-10 16:16:00,
2013-05-10 09:21:00,67.8,39.2,30.17,ESE,118,3.5,3.5,35,0.00,CLR,SCT,0.00,WeatherDisplay:10.37,2013-05-10 16:21:00,
2013-05-10 09:27:00,68.5,39.8,30.17,SSE,162,3.5,3.6,35,0.00,CLR,SCT,0.00,WeatherDisplay:10.37,2013-05-10 16:27:00,
2013-05-10 09:32:00,68.9,39.4,30.17,SE,139,5.8,5.8,34,0.00,CLR,SCT,0.00,WeatherDisplay:10.37,2013-05-10 16:32:00,
2013-05-10 09:37:00,69.4,39.8,30.17,SE,135,3.5,3.5,34,0.00,CLR,SCT,0.00,WeatherDisplay:10.37,2013-05-10 16:37:00,
2013-05-10 09:42:00,70.2,40.5,30.17,ESE,108,3.5,3.5,34,0.00,CLR,SCT,0.00,WeatherDisplay:10.37,2013-05-10 16:42:00,
2013-05-10 09:47:00,71.4,40.8,30.17,SE,137,5.8,5.8,33,0.00,CLR,SCT,0.00,WeatherDisplay:10.37,2013-05-10 16:47:00,
2013-05-10 09:52:00,72.1,41.4,30.17,East,93,5.8,5.8,33,0.00,CLR,SCT,0.00,WeatherDisplay:10.37,2013-05-10 16:52:00,
2013-05-10 09:57:00,72.9,42.1,30.17,ESE,104,6.9,6.9,33,0.00,CLR,SCT,0.00,WeatherDisplay:10.37,2013-05-10 16:57:00,
2013-05-10 10:02:00,73.6,41.9,30.17,SE,139,4.6,4.6,32,0.00,CLR,SCT,0.00,WeatherDisplay:10.37,2013-05-10 17:02:00,
2013-05-10 10:07:00,74.1,42.4,30.17,East,88,5.8,5.8,32,0.00,CLR,SCT,0.00,WeatherDisplay:10.37,2013-05-10 17:07:00,
2013-05-10 10:12:00,75.0,43.1,30.17,South,184,3.5,3.5,32,0.00,CLR,SCT,0.00,WeatherDisplay:10.37,2013-05-10 17:12:00,
2013-05-10 10:17:00,75.6,42.8,30.17,SE,139,2.3,4.0,31,0.00,CLR,SCT,0.00,WeatherDisplay:10.37,2013-05-10 17:17:00,
2013-05-10 10:23:00,76.5,43.6,30.17,South,187,4.0,4.0,31,0.00,CLR,SCT,0.00,WeatherDisplay:10.37,2013-05-10 17:23:00,
2013-05-10 10:28:00,77.4,44.4,30.17,NE,48,5.8,5.8,31,0.00,CLR,SCT,0.00,WeatherDisplay:10.37,2013-05-10 17:28:00,
2013-05-10 10:33:00,79.0,44.9,30.17,East,79,3.5,3.5,30,0.00,CLR,SCT,0.00,WeatherDisplay:10.37,2013-05-10 17:33:00,
2013-05-10 10:38:00,79.0,44.9,30.17,South,184,3.5,4.0,30,0.00,CLR,SCT,0.00,WeatherDisplay:10.37,2013-05-10 17:38:00,
2013-05-10 10:43:00,79.5,46.2,30.14,SSW,200,2.3,2.3,31,0.00,CLR,SCT,0.00,WeatherDisplay:10.37,2013-05-10 17:43:00,
2013-05-10 10:49:00,80.8,46.4,30.14,ENE,78,5.8,5.8,30,0.00,CLR,SCT,0.00,WeatherDisplay:10.37,2013-05-10 17:49:00,
2013-05-10 10:54:00,81.7,47.2,30.14,NE,47,8.1,8.1,30,0.00,CLR,SCT,0.00,WeatherDisplay:10.37,2013-05-10 17:54:00,
2013-05-10 10:59:00,82.4,47.8,30.14,SSE,168,4.6,4.6,30,0.00,CLR,SCT,0.00,WeatherDisplay:10.37,2013-05-10 17:59:00,
2013-05-10 11:04:00,82.0,47.5,30.14,SE,136,3.5,3.5,30,0.00,CLR,SCT,0.00,WeatherDisplay:10.37,2013-05-10 18:04:00,
2013-05-10 11:09:00,82.0,47.5,30.14,SE,124,5.8,5.8,30,0.00,CLR,SCT,0.00,WeatherDisplay:10.37,2013-05-10 18:09:00,
2013-05-10 11:14:00,82.3,47.8,30.14,SE,138,1.0,8.0,30,0.00,CLR,SCT,0.00,WeatherDisplay:10.37,2013-05-10 18:14:00,
2013-05-10 11:19:00,83.1,47.6,30.14,ESE,107,6.9,7.2,29,0.00,CLR,SCT,0.00,WeatherDisplay:10.37,2013-05-10 18:19:00,
2013-05-10 11:25:00,83.8,48.2,30.14,ENE,58,3.5,3.5,29,0.00,CLR,SCT,0.00,WeatherDisplay:10.37,2013-05-10 18:25:00,
2013-05-10 11:30:00,85.1,49.3,30.14,East,84,4.6,4.6,29,0.00,CLR,SCT,0.00,WeatherDisplay:10.37,2013-05-10 18:30:00,
2013-05-10 11:35:00,85.8,49.9,30.14,SE,145,5.8,5.8,29,0.00,CLR,SCT,0.00,WeatherDisplay:10.37,2013-05-10 18:35:00,
2013-05-10 11:40:00,85.8,49.9,30.14,SSE,153,5.8,5.8,29,0.00,CLR,SCT,0.00,WeatherDisplay:10.37,2013-05-10 18:40:00,
2013-05-10 11:45:00,85.5,49.6,30.14,WSW,241,5.8,5.8,29,0.00,CLR,SCT,0.00,WeatherDisplay:10.37,2013-05-10 18:45:00,
2013-05-10 11:50:00,86.2,50.2,30.14,South,177,9.2,9.2,29,0.00,CLR,SCT,0.00,WeatherDisplay:10.37,2013-05-10 18:50:00,
2013-05-10 11:56:00,86.9,50.8,30.14,SW,214,4.6,4.6,29,0.00,CLR,SCT,0.00,WeatherDisplay:10.37,2013-05-10 18:56:00,
2013-05-10 12:01:00,87.1,51.0,30.14,SE,137,5.8,5.8,29,0.00,CLR,SCT,0.00,WeatherDisplay:10.37,2013-05-10 19:01:00,
2013-05-10 12:06:00,86.7,50.7,30.14,ESE,103,5.8,5.8,29,0.00,CLR,SCT,0.00,WeatherDisplay:10.37,2013-05-10 19:06:00,
2013-05-10 12:11:00,87.4,51.3,30.14,North,8,8.1,8.1,29,0.00,CLR,SCT,0.00,WeatherDisplay:10.37,2013-05-10 19:11:00,
2013-05-10 12:16:00,87.6,51.4,30.14,South,171,0.0,0.0,29,0.00,CLR,SCT,0.00,WeatherDisplay:10.37,2013-05-10 19:16:00,
2013-05-10 12:21:00,87.6,51.4,30.14,SE,127,5.8,5.8,29,0.00,CLR,SCT,0.00,WeatherDisplay:10.37,2013-05-10 19:21:00,
2013-05-10 12:27:00,88.0,50.8,30.14,SE,129,5.8,5.8,28,0.00,CLR,SCT,0.00,WeatherDisplay:10.37,2013-05-10 19:27:00,
2013-05-10 12:32:00,88.3,51.1,30.14,SSE,158,5.8,5.8,28,0.00,CLR,SCT,0.00,WeatherDisplay:10.37,2013-05-10 19:32:00,
2013-05-10 12:37:00,88.3,51.1,30.14,SE,134,8.1,8.1,28,0.00,CLR,SCT,0.00,WeatherDisplay:10.37,2013-05-10 19:37:00,
2013-05-10 12:42:00,87.8,50.6,30.14,SSW,201,5.8,5.8,28,0.00,CLR,SCT,0.00,WeatherDisplay:10.37,2013-05-10 19:42:00,
2013-05-10 12:47:00,88.5,51.3,30.14,ENE,69,0.0,0.0,28,0.00,CLR,SCT,0.00,WeatherDisplay:10.37,2013-05-10 19:47:00,
2013-05-10 12:52:00,89.6,52.2,30.14,NE,36,3.5,0.0,28,0.00,CLR,SCT,0.00,WeatherDisplay:10.37,2013-05-10 19:52:00,
2013-05-10 12:57:00,90.1,52.6,30.11,SE,144,3.1,0.0,28,0.00,CLR,SCT,0.00,WeatherDisplay:10.37,2013-05-10 19:57:00,
2013-05-10 13:02:00,89.1,51.7,30.11,SW,219,9.2,9.2,28,0.00,CLR,SCT,0.00,WeatherDisplay:10.37,2013-05-10 20:02:00,
2013-05-10 13:08:00,90.0,52.5,30.11,WSW,250,3.5,3.5,28,0.00,CLR,SCT,0.00,WeatherDisplay:10.37,2013-05-10 20:08:00,
2013-05-10 13:13:00,90.3,52.8,30.11,SE,130,10.4,10.4,28,0.00,CLR,SCT,0.00,WeatherDisplay:10.37,2013-05-10 20:13:00,
2013-05-10 13:18:00,89.4,52.0,30.11,East,100,10.4,10.4,28,0.00,CLR,SCT,0.00,WeatherDisplay:10.37,2013-05-10 20:18:00,
2013-05-10 13:23:00,89.8,52.3,30.11,SW,227,8.1,8.1,28,0.00,CLR,SCT,0.00,WeatherDisplay:10.37,2013-05-10 20:23:00,
2013-05-10 13:28:00,89.4,52.0,30.11,SSW,206,9.2,9.2,28,0.00,CLR,SCT,0.00,WeatherDisplay:10.37,2013-05-10 20:28:00,
2013-05-10 13:33:00,90.1,52.6,30.11,SE,141,10.9,10.9,28,0.00,CLR,SCT,0.00,WeatherDisplay:10.37,2013-05-10 20:33:00,
2013-05-10 13:38:00,90.0,52.5,30.11,SE,126,11.8,11.8,28,0.00,CLR,SCT,0.00,WeatherDisplay:10.37,2013-05-10 20:38:00,
2013-05-10 13:44:00,89.6,52.2,30.11,South,184,10.4,10.4,28,0.00,CLR,SCT,0.00,WeatherDisplay:10.37,2013-05-10 20:44:00,
2013-05-10 13:49:00,90.1,52.6,30.11,ESE,102,8.1,8.1,28,0.00,CLR,SCT,0.00,WeatherDisplay:10.37,2013-05-10 20:49:00,
2013-05-10 13:54:00,90.1,52.6,30.11,ESE,108,5.8,5.8,28,0.00,CLR,SCT,0.00,WeatherDisplay:10.37,2013-05-10 20:54:00,
2013-05-10 13:59:00,90.0,52.5,30.11,SE,144,10.4,10.4,28,0.00,CLR,SCT,0.00,WeatherDisplay:10.37,2013-05-10 20:59:00,
2013-05-10 14:04:00,90.3,52.8,30.11,East,96,12.7,12.7,28,0.00,CLR,SCT,0.00,WeatherDisplay:10.37,2013-05-10 21:04:00,
2013-05-10 14:09:00,90.3,52.8,30.11,SE,131,12.7,12.7,28,0.00,CLR,SCT,0.00,WeatherDisplay:10.37,2013-05-10 21:09:00,
2013-05-10 14:14:00,90.0,52.5,30.11,WNW,289,3.5,4.5,28,0.00,CLR,SCT,0.00,WeatherDisplay:10.37,2013-05-10 21:14:00,
2013-05-10 14:19:00,90.5,52.9,30.11,South,179,10.4,10.4,28,0.00,CLR,SCT,0.00,WeatherDisplay:10.37,2013-05-10 21:19:00,
2013-05-10 14:25:00,90.5,52.9,30.11,SE,132,5.8,5.8,28,0.00,CLR,SCT,0.00,WeatherDisplay:10.37,2013-05-10 21:25:00,
2013-05-10 14:30:00,90.5,52.9,30.11,North,11,5.8,5.8,28,0.00,CLR,SCT,0.00,WeatherDisplay:10.37,2013-05-10 21:30:00,
2013-05-10 14:35:00,90.9,53.3,30.11,SE,131,11.4,11.4,28,0.00,CLR,SCT,0.00,WeatherDisplay:10.37,2013-05-10 21:35:00,
2013-05-10 14:40:00,90.5,52.9,30.08,South,188,12.7,12.7,28,0.00,CLR,SCT,0.00,WeatherDisplay:10.37,2013-05-10 21:40:00,
2013-05-10 14:45:00,90.9,53.3,30.08,SSE,154,8.0,8.0,28,0.00,CLR,SCT,0.00,WeatherDisplay:10.37,2013-05-10 21:45:00,
2013-05-10 14:50:00,91.2,53.6,30.08,SW,227,8.1,8.1,28,0.00,CLR,SCT,0.00,WeatherDisplay:10.37,2013-05-10 21:50:00,
2013-05-10 14:55:00,92.3,53.5,30.08,West,272,3.5,3.6,27,0.00,CLR,SCT,0.00,WeatherDisplay:10.37,2013-05-10 21:55:00,
2013-05-10 14:58:00,93.2,54.3,30.08,WSW,239,5.8,5.8,27,0.00,CLR,SCT,0.00,WeatherDisplay:10.37,2013-05-10 21:58:00,
2013-05-10 15:03:00,93.2,54.3,30.08,South,176,12.7,12.7,27,0.00,CLR,SCT,0.00,WeatherDisplay:10.37,2013-05-10 22:03:00,
2013-05-10 15:04:00,92.3,53.5,30.08,SW,232,12.7,12.7,27,0.00,CLR,SCT,0.00,WeatherDisplay:10.37,2013-05-10 22:04:00,
2013-05-10 15:09:00,92.8,53.9,30.08,SE,146,9.2,9.2,27,0.00,CLR,SCT,0.00,WeatherDisplay:10.37,2013-05-10 22:09:00,
2013-05-10 15:14:00,92.7,53.8,30.08,ESE,123,6.3,6.3,27,0.00,CLR,SCT,0.00,WeatherDisplay:10.37,2013-05-10 22:14:00,
2013-05-10 15:19:00,92.1,53.3,30.08,SSE,163,12.7,12.7,27,0.00,CLR,SCT,0.00,WeatherDisplay:10.37,2013-05-10 22:19:00,
2013-05-10 15:24:00,91.8,53.0,30.08,SSW,195,8.1,8.1,27,0.00,CLR,SCT,0.00,WeatherDisplay:10.37,2013-05-10 22:24:00,
2013-05-10 15:29:00,90.3,52.8,30.08,SSW,204,8.1,8.1,28,0.00,CLR,SCT,0.00,WeatherDisplay:10.37,2013-05-10 22:29:00,
2013-05-10 15:35:00,89.6,52.2,30.08,South,182,9.2,9.2,28,0.00,CLR,SCT,0.00,WeatherDisplay:10.37,2013-05-10 22:35:00,
2013-05-10 15:40:00,88.9,51.6,30.08,SW,225,9.2,9.2,28,0.00,CLR,SCT,0.00,WeatherDisplay:10.37,2013-05-10 22:40:00,
2013-05-10 15:45:00,88.9,51.6,30.08,WNW,283,8.1,8.1,28,0.00,CLR,SCT,0.00,WeatherDisplay:10.37,2013-05-10 22:45:00,
2013-05-10 15:50:00,89.1,51.7,30.08,SW,235,8.1,8.1,28,0.00,CLR,SCT,0.00,WeatherDisplay:10.37,2013-05-10 22:50:00,
2013-05-10 15:55:00,88.9,51.6,30.08,NW,306,5.8,5.8,28,0.00,CLR,SCT,0.00,WeatherDisplay:10.37,2013-05-10 22:55:00,
2013-05-10 16:00:00,88.9,51.6,30.08,NW,314,5.8,5.8,28,0.00,CLR,SCT,0.00,WeatherDisplay:10.37,2013-05-10 23:00:00,
2013-05-10 16:06:00,88.7,51.4,30.08,NW,318,3.5,3.5,28,0.00,CLR,SCT,0.00,WeatherDisplay:10.37,2013-05-10 23:06:00,
2013-05-10 16:11:00,88.7,51.4,30.08,WNW,303,8.1,8.1,28,0.00,CLR,SCT,0.00,WeatherDisplay:10.37,2013-05-10 23:11:00,
2013-05-10 16:16:00,88.7,51.4,30.08,NW,319,8.1,8.1,28,0.00,CLR,SCT,0.00,WeatherDisplay:10.37,2013-05-10 23:16:00,
2013-05-10 16:21:00,88.9,51.6,30.08,North,349,8.1,8.1,28,0.00,CLR,SCT,0.00,WeatherDisplay:10.37,2013-05-10 23:21:00,
2013-05-10 16:26:00,88.9,51.6,30.08,North,1,5.8,5.8,28,0.00,CLR,SCT,0.00,WeatherDisplay:10.37,2013-05-10 23:26:00,
2013-05-10 16:31:00,89.1,51.7,30.08,NNW,343,10.9,10.9,28,0.00,CLR,SCT,0.00,WeatherDisplay:10.37,2013-05-10 23:31:00,
2013-05-10 16:37:00,89.1,51.7,30.08,NNW,334,10.4,10.4,28,0.00,CLR,SCT,0.00,WeatherDisplay:10.37,2013-05-10 23:37:00,
2013-05-10 16:42:00,89.2,51.9,30.08,NW,319,8.1,8.1,28,0.00,CLR,SCT,0.00,WeatherDisplay:10.37,2013-05-10 23:42:00,
2013-05-10 16:47:00,88.7,51.4,30.08,NNW,333,10.4,10.4,28,0.00,CLR,SCT,0.00,WeatherDisplay:10.37,2013-05-10 23:47:00,
2013-05-10 16:52:00,87.8,50.6,30.08,NNW,340,5.8,5.8,28,0.00,CLR,SCT,0.00,WeatherDisplay:10.37,2013-05-10 23:52:00,
2013-05-10 16:57:00,87.4,51.3,30.08,North,350,10.4,10.4,29,0.00,CLR,SCT,0.00,WeatherDisplay:10.37,2013-05-10 23:57:00,
2013-05-10 17:02:00,86.5,50.5,30.08,NNW,331,5.8,5.8,29,0.00,CLR,SCT,0.00,WeatherDisplay:10.37,2013-05-11 00:02:00,
2013-05-10 17:07:00,86.2,50.2,30.08,NNW,330,5.8,5.8,29,0.00,CLR,SCT,0.00,WeatherDisplay:10.37,2013-05-11 00:07:00,
2013-05-10 17:12:00,86.0,50.0,30.08,NW,307,5.8,5.8,29,0.00,CLR,SCT,0.00,WeatherDisplay:10.37,2013-05-11 00:12:00,
2013-05-10 17:18:00,85.6,49.7,30.08,NW,326,5.8,5.8,29,0.00,CLR,SCT,0.00,WeatherDisplay:10.37,2013-05-11 00:18:00,
2013-05-10 17:23:00,85.3,49.4,30.08,NNW,334,5.8,5.8,29,0.00,CLR,SCT,0.00,WeatherDisplay:10.37,2013-05-11 00:23:00,
2013-05-10 17:28:00,85.1,49.3,30.08,WNW,295,4.6,4.6,29,0.00,CLR,SCT,0.00,WeatherDisplay:10.37,2013-05-11 00:28:00,
2013-05-10 17:33:00,84.6,48.8,30.08,West,272,15.0,15.0,29,0.00,CLR,SCT,0.00,WeatherDisplay:10.37,2013-05-11 00:33:00,
2013-05-10 17:39:00,81.9,47.4,30.08,West,274,15.0,15.0,30,0.00,CLR,SCT,0.00,WeatherDisplay:10.37,2013-05-11 00:39:00,
2013-05-10 17:44:00,80.2,46.0,30.08,WNW,302,15.0,15.0,30,0.00,CLR,SCT,0.00,WeatherDisplay:10.37,2013-05-11 00:44:00,
2013-05-10 17:49:00,78.3,45.1,30.08,SW,217,15.0,15.0,31,0.00,CLR,SCT,0.00,WeatherDisplay:10.37,2013-05-11 00:49:00,
2013-05-10 17:54:00,76.3,44.2,30.05,WNW,284,5.8,5.8,32,0.00,CLR,SCT,0.00,WeatherDisplay:10.37,2013-05-11 00:54:00,
2013-05-10 17:59:00,75.6,43.6,30.05,West,271,5.8,5.8,32,0.00,CLR,SCT,0.00,WeatherDisplay:10.37,2013-05-11 00:59:00,
2013-05-10 18:04:00,75.2,43.3,30.05,West,263,10.4,10.4,32,0.00,CLR,SCT,0.00,WeatherDisplay:10.37,2013-05-11 01:04:00,
2013-05-10 18:09:00,74.8,43.0,30.08,WSW,249,12.7,12.7,32,0.00,CLR,SCT,0.00,WeatherDisplay:10.37,2013-05-11 01:09:00,
2013-05-10 18:14:00,75.0,43.1,30.08,WSW,254,12.7,12.7,32,0.00,CLR,SCT,0.00,WeatherDisplay:10.37,2013-05-11 01:14:00,
2013-05-10 18:20:00,74.7,42.8,30.08,SW,229,11.5,11.5,32,0.00,CLR,SCT,0.00,WeatherDisplay:10.37,2013-05-11 01:20:00,
2013-05-10 18:25:00,73.0,42.2,30.08,SSW,208,5.8,5.8,33,0.00,CLR,SCT,0.00,WeatherDisplay:10.37,2013-05-11 01:25:00,
2013-05-10 18:30:00,72.3,41.6,30.08,WNW,283,15.0,15.0,33,0.00,CLR,SCT,0.00,WeatherDisplay:10.37,2013-05-11 01:30:00,
2013-05-10 18:35:00,73.4,41.7,30.08,WSW,253,12.7,12.7,32,0.00,CLR,SCT,0.00,WeatherDisplay:10.37,2013-05-11 01:35:00,
2013-05-10 18:40:00,72.5,41.7,30.11,SW,232,18.4,18.4,33,0.00,CLR,SCT,0.00,WeatherDisplay:10.37,2013-05-11 01:40:00,
2013-05-10 18:45:00,72.1,41.4,30.11,SSW,210,16.1,16.1,33,0.00,CLR,SCT,0.00,WeatherDisplay:10.37,2013-05-11 01:45:00,
2013-05-10 18:50:00,69.6,40.0,30.11,SSW,211,18.4,18.4,34,0.00,CLR,SCT,0.00,WeatherDisplay:10.37,2013-05-11 01:50:00,
2013-05-10 18:55:00,70.2,40.5,30.11,SW,222,15.0,15.0,34,0.00,CLR,SCT,0.00,WeatherDisplay:10.37,2013-05-11 01:55:00,
2013-05-10 19:00:00,70.2,40.5,30.11,WSW,256,9.2,9.2,34,0.00,CLR,SCT,0.00,WeatherDisplay:10.37,2013-05-11 02:00:00,
2013-05-10 19:05:00,70.2,39.7,30.11,South,182,12.7,12.7,33,0.00,CLR,SCT,0.00,WeatherDisplay:10.37,2013-05-11 02:05:00,
2013-05-10 19:10:00,68.7,42.1,30.11,SW,221,9.2,9.2,38,0.00,CLR,SCT,0.00,WeatherDisplay:10.37,2013-05-11 02:10:00,
2013-05-10 19:15:00,67.5,43.6,30.11,SSW,193,26.5,26.5,42,0.00,CLR,SCT,0.00,WeatherDisplay:10.37,2013-05-11 02:15:00,
2013-05-10 19:20:00,66.6,44.5,30.11,West,264,8.1,20.1,45,0.00,CLR,SCT,0.00,WeatherDisplay:10.37,2013-05-11 02:20:00,
2013-05-10 19:26:00,64.8,46.2,30.11,North,4,8.1,8.1,51,0.04,RA,SCT,0.04,WeatherDisplay:10.37,2013-05-11 02:26:00,
2013-05-10 19:31:00,64.8,43.5,30.11,WNW,297,8.1,8.1,46,0.04,RA,SCT,0.04,WeatherDisplay:10.37,2013-05-11 02:31:00,
2013-05-10 19:36:00,65.3,43.4,30.11,South,171,8.3,8.3,45,0.04,CLR,SCT,0.04,WeatherDisplay:10.37,2013-05-11 02:36:00,
2013-05-10 19:41:00,65.7,44.3,30.11,North,0,6.9,6.9,46,0.04,CLR,SCT,0.04,WeatherDisplay:10.37,2013-05-11 02:41:00,
2013-05-10 19:46:00,65.8,44.5,30.11,North,2,5.8,5.8,46,0.04,CLR,SCT,0.04,WeatherDisplay:10.37,2013-05-11 02:46:00,
2013-05-10 19:51:00,66.0,44.1,30.11,ENE,70,4.6,4.6,45,0.04,CLR,SCT,0.04,WeatherDisplay:10.37,2013-05-11 02:51:00,
2013-05-10 19:56:00,66.4,41.3,30.11,East,93,5.8,5.8,40,0.04,CLR,SCT,0.04,WeatherDisplay:10.37,2013-05-11 02:56:00,
2013-05-10 20:02:00,66.7,43.5,30.11,North,0,3.5,3.5,43,0.04,CLR,SCT,0.04,WeatherDisplay:10.37,2013-05-11 03:02:00,
2013-05-10 20:07:00,66.7,43.5,30.11,North,0,3.5,0.0,43,0.04,CLR,SCT,0.04,WeatherDisplay:10.37,2013-05-11 03:07:00,
2013-05-10 20:12:00,66.9,42.4,30.11,North,2,3.5,3.5,41,0.04,CLR,SCT,0.04,WeatherDisplay:10.37,2013-05-11 03:12:00,
2013-05-10 20:17:00,67.3,44.0,30.11,North,0,0.0,0.0,43,0.04,CLR,SCT,0.04,WeatherDisplay:10.37,2013-05-11 03:17:00,
2013-05-10 20:22:00,67.5,47.1,30.11,SW,216,4.5,0.0,48,0.04,CLR,SCT,0.04,WeatherDisplay:10.37,2013-05-11 03:22:00,
2013-05-10 20:27:00,67.1,43.8,30.11,WSW,238,4.0,4.0,43,0.00,CLR,SCT,0.04,WeatherDisplay:10.37,2013-05-11 03:27:00,
2013-05-10 20:33:00,67.3,42.8,30.11,West,264,3.5,3.5,41,0.00,CLR,SCT,0.04,WeatherDisplay:10.37,2013-05-11 03:33:00,
2013-05-10 20:38:00,67.5,41.0,30.11,SW,234,3.5,3.5,38,0.00,CLR,SCT,0.04,WeatherDisplay:10.37,2013-05-11 03:38:00,
2013-05-10 20:43:00,67.6,41.8,30.11,WSW,244,8.1,8.1,39,0.00,CLR,SCT,0.04,WeatherDisplay:10.37,2013-05-11 03:43:00,
2013-05-10 20:48:00,67.8,41.3,30.11,SW,236,9.2,9.2,38,0.00,CLR,SCT,0.04,WeatherDisplay:10.37,2013-05-11 03:48:00,
2013-05-10 20:53:00,67.8,41.9,30.11,WSW,258,8.1,8.1,39,0.00,CLR,SCT,0.04,WeatherDisplay:10.37,2013-05-11 03:53:00,
2013-05-10 20:58:00,68.0,41.4,30.11,West,261,6.9,7.6,38,0.00,CLR,SCT,0.04,WeatherDisplay:10.37,2013-05-11 03:58:00,
2013-05-10 21:01:00,68.0,41.4,30.11,WSW,251,8.1,8.1,38,0.00,CLR,SCT,0.04,WeatherDisplay:10.37,2013-05-11 04:01:00,
2013-05-10 21:04:00,68.0,41.4,30.11,SW,234,5.8,5.8,38,0.00,CLR,SCT,0.04,WeatherDisplay:10.37,2013-05-11 04:04:00,
2013-05-10 21:09:00,68.2,41.6,30.11,WSW,248,5.8,5.8,38,0.00,CLR,SCT,0.04,WeatherDisplay:10.37,2013-05-11 04:09:00,
2013-05-10 21:15:00,67.8,41.9,30.11,WSW,241,5.8,5.8,39,0.00,CLR,SCT,0.04,WeatherDisplay:10.37,2013-05-11 04:15:00,
2013-05-10 21:20:00,67.8,41.9,30.11,West,259,10.4,10.4,39,0.00,CLR,SCT,0.04,WeatherDisplay:10.37,2013-05-11 04:20:00,
2013-05-10 21:25:00,67.8,41.9,30.14,WSW,240,10.4,10.4,39,0.00,CLR,SCT,0.04,WeatherDisplay:10.37,2013-05-11 04:25:00,
2013-05-10 21:30:00,68.0,41.4,30.14,SSW,213,11.5,11.5,38,0.00,CLR,SCT,0.04,WeatherDisplay:10.37,2013-05-11 04:30:00,
2013-05-10 21:35:00,68.0,40.7,30.14,West,267,12.7,12.7,37,0.00,CLR,SCT,0.04,WeatherDisplay:10.37,2013-05-11 04:35:00,
2013-05-10 21:40:00,68.2,40.2,30.14,SW,235,9.2,9.2,36,0.00,CLR,SCT,0.04,WeatherDisplay:10.37,2013-05-11 04:40:00,
2013-05-10 21:46:00,68.2,40.2,30.14,WSW,239,9.2,9.2,36,0.00,CLR,SCT,0.04,WeatherDisplay:10.37,2013-05-11 04:46:00,
2013-05-10 21:51:00,68.0,40.0,30.14,WSW,251,9.2,9.2,36,0.00,CLR,SCT,0.04,WeatherDisplay:10.37,2013-05-11 04:51:00,
2013-05-10 21:56:00,67.8,39.9,30.14,West,265,8.1,8.1,36,0.00,CLR,SCT,0.04,WeatherDisplay:10.37,2013-05-11 04:56:00,
2013-05-10 22:01:00,68.0,40.0,30.14,West,276,8.1,8.1,36,0.00,CLR,SCT,0.04,WeatherDisplay:10.37,2013-05-11 05:01:00,
2013-05-10 22:07:00,68.0,39.3,30.14,WSW,255,8.1,8.1,35,0.00,CLR,SCT,0.04,WeatherDisplay:10.37,2013-05-11 05:07:00,
2013-05-10 22:12:00,68.0,39.3,30.14,WNW,298,8.1,8.1,35,0.00,CLR,SCT,0.04,WeatherDisplay:10.37,2013-05-11 05:12:00,
2013-05-10 22:17:00,67.8,39.9,30.14,WNW,296,8.1,8.1,36,0.00,CLR,SCT,0.04,WeatherDisplay:10.37,2013-05-11 05:17:00,
2013-05-10 22:22:00,67.6,39.7,30.14,West,270,5.8,5.8,36,0.00,CLR,SCT,0.04,WeatherDisplay:10.37,2013-05-11 05:22:00,
2013-05-10 22:27:00,67.6,39.7,30.14,WNW,288,5.8,5.8,36,0.00,CLR,SCT,0.04,WeatherDisplay:10.37,2013-05-11 05:27:00,
2013-05-10 22:33:00,67.3,39.4,30.14,WNW,300,5.8,5.8,36,0.00,CLR,SCT,0.04,WeatherDisplay:10.37,2013-05-11 05:33:00,
2013-05-10 22:38:00,67.1,39.2,30.14,NW,309,6.9,6.9,36,0.00,CLR,SCT,0.04,WeatherDisplay:10.37,2013-05-11 05:38:00,
2013-05-10 22:43:00,67.1,39.2,30.14,NW,321,9.2,9.2,36,0.00,CLR,SCT,0.04,WeatherDisplay:10.37,2013-05-11 05:43:00,
2013-05-10 22:48:00,66.9,39.1,30.14,NW,320,5.8,5.8,36,0.00,CLR,SCT,0.04,WeatherDisplay:10.37,2013-05-11 05:48:00,
2013-05-10 22:53:00,66.9,39.1,30.14,WNW,294,6.9,6.9,36,0.00,CLR,SCT,0.04,WeatherDisplay:10.37,2013-05-11 05:53:00,
2013-05-10 22:58:00,66.9,39.1,30.14,WNW,296,5.8,5.8,36,0.00,CLR,SCT,0.04,WeatherDisplay:10.37,2013-05-11 05:58:00,
2013-05-10 23:04:00,66.7,38.9,30.14,WNW,290,7.6,7.6,36,0.00,CLR,SCT,0.04,WeatherDisplay:10.37,2013-05-11 06:04:00,
2013-05-10 23:09:00,66.7,38.9,30.17,West,261,5.8,5.8,36,0.00,CLR,SCT,0.04,WeatherDisplay:10.37,2013-05-11 06:09:00,
2013-05-10 23:14:00,66.4,39.3,30.17,West,263,2.3,0.0,37,0.00,CLR,SCT,0.04,WeatherDisplay:10.37,2013-05-11 06:14:00,
2013-05-10 23:19:00,65.8,39.5,30.17,SE,133,4.6,4.6,38,0.00,CLR,SCT,0.04,WeatherDisplay:10.37,2013-05-11 06:19:00,
2013-05-10 23:24:00,65.1,39.5,30.17,SE,139,3.5,3.5,39,0.00,CLR,SCT,0.04,WeatherDisplay:10.37,2013-05-11 06:24:00,
2013-05-10 23:30:00,64.4,40.2,30.17,SSE,161,6.0,6.0,41,0.00,CLR,SCT,0.04,WeatherDisplay:10.37,2013-05-11 06:30:00,
2013-05-10 23:35:00,64.0,40.5,30.17,SSW,193,4.6,4.6,42,0.00,CLR,SCT,0.04,WeatherDisplay:10.37,2013-05-11 06:35:00,
2013-05-10 23:40:00,63.9,40.3,30.17,SSW,192,0.0,0.0,42,0.00,CLR,SCT,0.04,WeatherDisplay:10.37,2013-05-11 06:40:00,
2013-05-10 23:45:00,63.7,40.8,30.17,SSW,196,3.5,3.5,43,0.00,CLR,SCT,0.04,WeatherDisplay:10.37,2013-05-11 06:45:00,
2013-05-10 23:50:00,63.5,40.6,30.17,SSW,196,0.0,0.0,43,0.00,CLR,SCT,0.04,WeatherDisplay:10.37,2013-05-11 06:50:00,
2013-05-10 23:55:00,63.1,40.9,30.17,SSW,196,4.6,4.6,44,0.00,CLR,SCT,0.04,WeatherDisplay:10.37,2013-05-11 06:55:00,